Terminal Aerodrome Forecast
Issued by NWS Blacksburg, VA

Home | Current Version | Previous Version | Text Only | Print | Product List | Glossary On
Versions: 1 2 3 4 5 6 7 8 9 10 11 12 13 14 15 16 17 18 19 20 21 22 23 24 25 26 27 28 29 30 31 32
000
FTUS41 KRNK 051728
TAFDAN
TAF
KDAN 051728Z 0518/0618 07008KT P6SM VCSH SCT020 BKN040
      TEMPO 0519/0522 4SM SHRA OVC025
     FM060100 04007KT P6SM OVC035
     FM060600 04006KT 5SM BR OVC015
     FM061000 05002KT 2SM BR OVC004
     FM061500 04005KT 6SM HZ SCT007 OVC015=

USA.gov is the U.S. government's official web portal to all federal, state and local government web resources and services.